Terminal Aerodrome Forecast
Issued by NWS

Home | Current Version | Previous Version | Text Only | Print | Product List | Glossary On
Versions: 1 2 3 4 5 6 7 8 9 10 11 12 13 14
000
FTUS42 KGSP 092332
TAFAND
TAF
KAND 092332Z 1000/1024 27011G21KT P6SM VCSH BKN050
     FM100300 27010KT P6SM SCT060
     FM101700 27016G25KT P6SM FEW250=

USA.gov is the U.S. government's official web portal to all federal, state and local government web resources and services.